sensor_id;sensor_type;location;lat;lon;timestamp;pressure;altitude;pressure_sealevel;temperature;humidity
63347;BME280;49472;49.880;8.650;2023-02-13T00:02:13;102211.88;;;13.01;56.56
63347;BME280;49472;49.880;8.650;2023-02-13T00:04:39;102217.28;;;12.95;56.95
63347;BME280;49472;49.880;8.650;2023-02-13T00:07:06;102215.69;;;12.92;56.93
63347;BME280;49472;49.880;8.650;2023-02-13T00:09:32;102209.81;;;12.90;56.78
63347;BME280;49472;49.880;8.650;2023-02-13T00:11:57;102209.94;;;12.87;56.95
63347;BME280;49472;49.880;8.650;2023-02-13T00:14:23;102210.69;;;12.89;56.95
63347;BME280;49472;49.880;8.650;2023-02-13T00:16:48;102204.69;;;12.90;56.78
63347;BME280;49472;49.880;8.650;2023-02-13T00:19:13;102209.22;;;12.85;57.18
63347;BME280;49472;49.880;8.650;2023-02-13T00:21:38;102210.84;;;12.86;56.98
63347;BME280;49472;49.880;8.650;2023-02-13T00:24:04;102209.06;;;13.06;56.60
63347;BME280;49472;49.880;8.650;2023-02-13T00:26:29;102207.97;;;12.92;56.59
63347;BME280;49472;49.880;8.650;2023-02-13T00:28:55;102207.38;;;12.87;56.89
63347;BME280;49472;49.880;8.650;2023-02-13T00:31:21;102210.09;;;12.84;57.00
63347;BME280;49472;49.880;8.650;2023-02-13T00:33:47;102212.44;;;12.89;57.15
63347;BME280;49472;49.880;8.650;2023-02-13T00:36:17;102213.28;;;12.89;56.85
63347;BME280;49472;49.880;8.650;2023-02-13T00:38:44;102201.72;;;12.80;57.02
63347;BME280;49472;49.880;8.650;2023-02-13T00:41:10;102207.81;;;12.78;56.82
63347;BME280;49472;49.880;8.650;2023-02-13T00:43:36;102210.19;;;12.82;56.82
63347;BME280;49472;49.880;8.650;2023-02-13T00:46:02;102205.16;;;12.79;56.78
63347;BME280;49472;49.880;8.650;2023-02-13T00:48:30;102214.63;;;12.79;56.71
63347;BME280;49472;49.880;8.650;2023-02-13T00:50:55;102204.66;;;12.73;56.89
63347;BME280;49472;49.880;8.650;2023-02-13T00:53:22;102199.72;;;12.68;56.97
63347;BME280;49472;49.880;8.650;2023-02-13T00:55:48;102200.28;;;12.75;56.88
63347;BME280;49472;49.880;8.650;2023-02-13T00:58:14;102198.31;;;12.80;56.84
63347;BME280;49472;49.880;8.650;2023-02-13T01:00:40;102195.81;;;12.78;56.70
63347;BME280;49472;49.880;8.650;2023-02-13T01:03:06;102197.72;;;12.75;56.88
63347;BME280;49472;49.880;8.650;2023-02-13T01:05:32;102190.69;;;12.78;57.02
63347;BME280;49472;49.880;8.650;2023-02-13T01:07:57;102193.47;;;12.74;56.79
63347;BME280;49472;49.880;8.650;2023-02-13T01:10:22;102201.00;;;12.77;56.73
63347;BME280;49472;49.880;8.650;2023-02-13T01:12:48;102196.78;;;12.76;56.72
63347;BME280;49472;49.880;8.650;2023-02-13T01:15:13;102197.78;;;12.73;56.83
63347;BME280;49472;49.880;8.650;2023-02-13T01:17:38;102198.34;;;12.61;56.81
63347;BME280;49472;49.880;8.650;2023-02-13T01:20:08;102200.03;;;12.62;56.88
63347;BME280;49472;49.880;8.650;2023-02-13T01:22:34;102202.72;;;12.59;57.11
63347;BME280;49472;49.880;8.650;2023-02-13T01:24:59;102201.13;;;12.56;57.08
63347;BME280;49472;49.880;8.650;2023-02-13T01:27:27;102196.75;;;12.58;56.94
63347;BME280;49472;49.880;8.650;2023-02-13T01:29:52;102197.19;;;12.49;57.05
63347;BME280;49472;49.880;8.650;2023-02-13T01:32:17;102204.53;;;12.57;57.05
63347;BME280;49472;49.880;8.650;2023-02-13T01:34:43;102209.13;;;12.50;56.97
63347;BME280;49472;49.880;8.650;2023-02-13T01:37:08;102211.38;;;12.56;57.21
63347;BME280;49472;49.880;8.650;2023-02-13T01:39:33;102204.91;;;12.49;56.95
63347;BME280;49472;49.880;8.650;2023-02-13T01:41:58;102201.34;;;12.52;57.10
63347;BME280;49472;49.880;8.650;2023-02-13T01:44:52;102197.81;;;12.54;57.03
63347;BME280;49472;49.880;8.650;2023-02-13T01:47:37;102204.75;;;12.52;56.99
63347;BME280;49472;49.880;8.650;2023-02-13T01:53:13;102196.03;;;12.37;56.97
63347;BME280;49472;49.880;8.650;2023-02-13T01:55:47;102200.59;;;12.31;57.14
63347;BME280;49472;49.880;8.650;2023-02-13T01:58:18;102201.56;;;12.28;57.06
63347;BME280;49472;49.880;8.650;2023-02-13T02:00:45;102195.75;;;12.25;57.20
63347;BME280;49472;49.880;8.650;2023-02-13T02:03:23;102193.38;;;12.20;57.14
63347;BME280;49472;49.880;8.650;2023-02-13T02:05:54;102194.22;;;12.21;57.32
63347;BME280;49472;49.880;8.650;2023-02-13T02:08:21;102206.56;;;12.12;57.38
63347;BME280;49472;49.880;8.650;2023-02-13T02:10:46;102198.38;;;12.04;57.37
63347;BME280;49472;49.880;8.650;2023-02-13T02:13:17;102194.28;;;12.00;57.18
63347;BME280;49472;49.880;8.650;2023-02-13T02:15:43;102198.56;;;12.00;57.47
63347;BME280;49472;49.880;8.650;2023-02-13T02:18:14;102191.84;;;11.97;57.43
63347;BME280;49472;49.880;8.650;2023-02-13T02:26:58;102180.59;;;11.81;57.87
63347;BME280;49472;49.880;8.650;2023-02-13T02:30:06;102177.25;;;11.79;57.21
63347;BME280;49472;49.880;8.650;2023-02-13T02:35:47;102181.94;;;11.69;57.52
63347;BME280;49472;49.880;8.650;2023-02-13T02:47:07;102183.59;;;11.49;57.53
63347;BME280;49472;49.880;8.650;2023-02-13T02:50:09;102183.69;;;11.48;57.79
63347;BME280;49472;49.880;8.650;2023-02-13T02:53:06;102186.13;;;11.51;57.60
63347;BME280;49472;49.880;8.650;2023-02-13T02:55:39;102183.56;;;11.51;57.22
63347;BME280;49472;49.880;8.650;2023-02-13T02:59:13;102184.72;;;11.44;57.43
63347;BME280;49472;49.880;8.650;2023-02-13T03:01:38;102186.75;;;11.36;57.57
63347;BME280;49472;49.880;8.650;2023-02-13T03:04:36;102181.81;;;11.31;57.62
63347;BME280;49472;49.880;8.650;2023-02-13T03:07:21;102178.75;;;11.23;57.79
63347;BME280;49472;49.880;8.650;2023-02-13T03:09:50;102180.16;;;11.30;57.47
63347;BME280;49472;49.880;8.650;2023-02-13T03:12:40;102182.53;;;11.35;57.66
63347;BME280;49472;49.880;8.650;2023-02-13T03:15:27;102181.19;;;11.46;57.94
63347;BME280;49472;49.880;8.650;2023-02-13T03:17:53;102189.91;;;11.42;57.86
63347;BME280;49472;49.880;8.650;2023-02-13T03:21:07;102186.75;;;11.36;58.40
63347;BME280;49472;49.880;8.650;2023-02-13T03:41:39;102193.44;;;11.40;58.25
63347;BME280;49472;49.880;8.650;2023-02-13T03:44:33;102194.75;;;11.48;57.76
63347;BME280;49472;49.880;8.650;2023-02-13T03:47:03;102194.31;;;11.39;57.61
63347;BME280;49472;49.880;8.650;2023-02-13T03:49:42;102189.19;;;11.39;57.49
63347;BME280;49472;49.880;8.650;2023-02-13T03:55:06;102191.78;;;11.17;57.49
63347;BME280;49472;49.880;8.650;2023-02-13T03:57:55;102192.88;;;11.11;57.63
63347;BME280;49472;49.880;8.650;2023-02-13T04:00:49;102196.41;;;11.08;57.58
63347;BME280;49472;49.880;8.650;2023-02-13T04:05:58;102198.84;;;11.12;57.34
63347;BME280;49472;49.880;8.650;2023-02-13T04:08:28;102196.84;;;10.98;57.50
63347;BME280;49472;49.880;8.650;2023-02-13T04:11:06;102194.66;;;11.09;57.38
63347;BME280;49472;49.880;8.650;2023-02-13T04:13:37;102196.25;;;11.12;57.32
63347;BME280;49472;49.880;8.650;2023-02-13T04:16:14;102201.25;;;10.94;57.20
63347;BME280;49472;49.880;8.650;2023-02-13T04:18:42;102196.84;;;10.98;56.99
63347;BME280;49472;49.880;8.650;2023-02-13T04:21:08;102204.66;;;10.95;57.09
63347;BME280;49472;49.880;8.650;2023-02-13T04:23:33;102199.41;;;10.76;57.20
63347;BME280;49472;49.880;8.650;2023-02-13T04:26:05;102202.91;;;10.73;57.61
63347;BME280;49472;49.880;8.650;2023-02-13T04:28:31;102199.78;;;10.67;57.54
63347;BME280;49472;49.880;8.650;2023-02-13T04:30:56;102194.78;;;10.63;57.61
63347;BME280;49472;49.880;8.650;2023-02-13T04:33:22;102192.94;;;10.67;57.90
63347;BME280;49472;49.880;8.650;2023-02-13T04:35:47;102189.53;;;10.67;58.08
63347;BME280;49472;49.880;8.650;2023-02-13T04:38:13;102181.88;;;10.67;58.45
63347;BME280;49472;49.880;8.650;2023-02-13T04:40:38;102191.69;;;10.77;58.05
63347;BME280;49472;49.880;8.650;2023-02-13T04:43:03;102190.03;;;10.76;58.13
63347;BME280;49472;49.880;8.650;2023-02-13T04:45:29;102189.63;;;10.85;58.01
63347;BME280;49472;49.880;8.650;2023-02-13T04:47:55;102186.19;;;10.86;58.31
63347;BME280;49472;49.880;8.650;2023-02-13T04:50:21;102186.19;;;10.86;58.07
63347;BME280;49472;49.880;8.650;2023-02-13T04:52:46;102184.59;;;10.84;58.08
63347;BME280;49472;49.880;8.650;2023-02-13T04:55:12;102183.81;;;10.82;58.20
63347;BME280;49472;49.880;8.650;2023-02-13T04:57:38;102180.66;;;10.75;58.19
63347;BME280;49472;49.880;8.650;2023-02-13T05:00:05;102177.09;;;10.79;57.89
63347;BME280;49472;49.880;8.650;2023-02-13T05:02:31;102174.59;;;10.78;57.94
63347;BME280;49472;49.880;8.650;2023-02-13T05:04:56;102173.63;;;10.80;58.32
63347;BME280;49472;49.880;8.650;2023-02-13T05:07:21;102170.19;;;10.81;58.35
63347;BME280;49472;49.880;8.650;2023-02-13T05:09:47;102177.31;;;10.73;58.72
63347;BME280;49472;49.880;8.650;2023-02-13T05:12:12;102168.69;;;10.76;58.87
63347;BME280;49472;49.880;8.650;2023-02-13T05:14:37;102172.75;;;10.81;58.58
63347;BME280;49472;49.880;8.650;2023-02-13T05:17:02;102162.56;;;10.80;58.63
63347;BME280;49472;49.880;8.650;2023-02-13T05:19:28;102165.72;;;10.86;58.72
63347;BME280;49472;49.880;8.650;2023-02-13T05:21:53;102168.84;;;10.93;58.56
63347;BME280;49472;49.880;8.650;2023-02-13T05:24:37;102173.50;;;10.83;58.81
63347;BME280;49472;49.880;8.650;2023-02-13T05:27:02;102175.00;;;10.89;58.80
63347;BME280;49472;49.880;8.650;2023-02-13T05:29:27;102164.78;;;10.89;58.91
63347;BME280;49472;49.880;8.650;2023-02-13T05:31:55;102165.81;;;10.83;59.16
63347;BME280;49472;49.880;8.650;2023-02-13T05:34:22;102164.19;;;10.82;59.69
63347;BME280;49472;49.880;8.650;2023-02-13T05:36:48;102172.44;;;10.89;59.39
63347;BME280;49472;49.880;8.650;2023-02-13T05:39:14;102170.41;;;10.97;59.27
63347;BME280;49472;49.880;8.650;2023-02-13T05:41:41;102176.63;;;10.92;59.15
63347;BME280;49472;49.880;8.650;2023-02-13T05:44:07;102168.94;;;10.92;59.44
63347;BME280;49472;49.880;8.650;2023-02-13T05:46:32;102163.56;;;10.98;59.78
63347;BME280;49472;49.880;8.650;2023-02-13T05:48:57;102169.47;;;11.00;58.86
63347;BME280;49472;49.880;8.650;2023-02-13T05:51:23;102170.00;;;10.86;59.24
63347;BME280;49472;49.880;8.650;2023-02-13T05:53:48;102176.06;;;10.83;59.20
63347;BME280;49472;49.880;8.650;2023-02-13T05:56:14;102170.94;;;10.83;59.47
63347;BME280;49472;49.880;8.650;2023-02-13T05:58:39;102178.41;;;10.90;59.00
63347;BME280;49472;49.880;8.650;2023-02-13T06:01:04;102170.94;;;10.83;58.96
63347;BME280;49472;49.880;8.650;2023-02-13T06:03:31;102169.28;;;10.82;59.37
63347;BME280;49472;49.880;8.650;2023-02-13T06:05:57;102167.88;;;10.75;59.50
63347;BME280;49472;49.880;8.650;2023-02-13T06:08:24;102171.06;;;10.80;59.41
63347;BME280;49472;49.880;8.650;2023-02-13T06:10:49;102169.41;;;10.79;59.28
63347;BME280;49472;49.880;8.650;2023-02-13T06:13:15;102169.34;;;10.81;59.40
63347;BME280;49472;49.880;8.650;2023-02-13T06:15:41;102166.13;;;10.76;59.42
63347;BME280;49472;49.880;8.650;2023-02-13T06:18:06;102167.00;;;10.76;59.23
63347;BME280;49472;49.880;8.650;2023-02-13T06:20:32;102170.66;;;10.91;58.99
63347;BME280;49472;49.880;8.650;2023-02-13T06:22:57;102179.06;;;10.73;59.26
63347;BME280;49472;49.880;8.650;2023-02-13T06:25:22;102175.63;;;10.74;59.50
63347;BME280;49472;49.880;8.650;2023-02-13T06:27:48;102179.84;;;10.75;59.19
63347;BME280;49472;49.880;8.650;2023-02-13T06:30:14;102180.25;;;10.64;59.49
63347;BME280;49472;49.880;8.650;2023-02-13T06:32:40;102173.88;;;10.74;59.28
63347;BME280;49472;49.880;8.650;2023-02-13T06:35:06;102179.88;;;10.73;59.28
63347;BME280;49472;49.880;8.650;2023-02-13T06:37:32;102179.72;;;10.78;59.08
63347;BME280;49472;49.880;8.650;2023-02-13T06:39:57;102178.75;;;10.80;59.47
63347;BME280;49472;49.880;8.650;2023-02-13T06:42:22;102177.22;;;10.76;59.15
63347;BME280;49472;49.880;8.650;2023-02-13T06:44:47;102173.72;;;10.79;59.15
63347;BME280;49472;49.880;8.650;2023-02-13T06:47:13;102173.94;;;10.73;59.26
63347;BME280;49472;49.880;8.650;2023-02-13T06:49:38;102178.22;;;10.72;59.36
63347;BME280;49472;49.880;8.650;2023-02-13T06:52:03;102180.19;;;10.65;59.36
63347;BME280;49472;49.880;8.650;2023-02-13T06:54:29;102185.78;;;10.75;59.25
63347;BME280;49472;49.880;8.650;2023-02-13T06:56:54;102182.38;;;10.75;59.08
63347;BME280;49472;49.880;8.650;2023-02-13T06:59:19;102189.28;;;10.73;59.12
63347;BME280;49472;49.880;8.650;2023-02-13T07:01:45;102183.28;;;10.74;59.07
63347;BME280;49472;49.880;8.650;2023-02-13T07:04:10;102185.78;;;10.75;59.30
63347;BME280;49472;49.880;8.650;2023-02-13T07:06:36;102188.22;;;10.78;59.04
63347;BME280;49472;49.880;8.650;2023-02-13T07:09:02;102188.22;;;10.78;58.93
63347;BME280;49472;49.880;8.650;2023-02-13T07:11:28;102187.34;;;10.79;59.03
63347;BME280;49472;49.880;8.650;2023-02-13T07:13:53;102187.38;;;10.78;59.10
63347;BME280;49472;49.880;8.650;2023-02-13T07:16:19;102189.78;;;10.82;59.21
63347;BME280;49472;49.880;8.650;2023-02-13T07:18:44;102187.06;;;10.85;59.03
63347;BME280;49472;49.880;8.650;2023-02-13T07:21:10;102188.63;;;10.90;59.08
63347;BME280;49472;49.880;8.650;2023-02-13T07:23:35;102193.81;;;10.88;59.25
63347;BME280;49472;49.880;8.650;2023-02-13T07:26:01;102194.81;;;10.62;59.42
63347;BME280;49472;49.880;8.650;2023-02-13T07:28:28;102200.19;;;10.78;59.39
63347;BME280;49472;49.880;8.650;2023-02-13T07:30:53;102195.78;;;10.81;59.26
63347;BME280;49472;49.880;8.650;2023-02-13T07:33:19;102190.38;;;10.89;59.23
63347;BME280;49472;49.880;8.650;2023-02-13T07:35:48;102190.25;;;10.92;58.95
63347;BME280;49472;49.880;8.650;2023-02-13T07:38:15;102194.41;;;10.95;58.87
63347;BME280;49472;49.880;8.650;2023-02-13T07:40:40;102188.13;;;10.81;59.09
63347;BME280;49472;49.880;8.650;2023-02-13T07:43:05;102187.84;;;10.88;59.14
63347;BME280;49472;49.880;8.650;2023-02-13T07:45:31;102189.72;;;10.84;59.47
63347;BME280;49472;49.880;8.650;2023-02-13T07:47:56;102179.56;;;11.03;58.85
63347;BME280;49472;49.880;8.650;2023-02-13T07:50:22;102199.22;;;11.02;59.41
63347;BME280;49472;49.880;8.650;2023-02-13T07:52:58;102196.53;;;11.05;59.05
63347;BME280;49472;49.880;8.650;2023-02-13T07:55:24;102191.69;;;11.20;59.04
63347;BME280;49472;49.880;8.650;2023-02-13T07:57:50;102191.16;;;11.12;59.06
63347;BME280;49472;49.880;8.650;2023-02-13T08:00:16;102195.78;;;11.24;58.83
63347;BME280;49472;49.880;8.650;2023-02-13T08:02:42;102196.97;;;11.37;58.72
63347;BME280;49472;49.880;8.650;2023-02-13T08:05:07;102198.78;;;11.34;59.06
63347;BME280;49472;49.880;8.650;2023-02-13T08:07:33;102193.94;;;11.48;58.69
63347;BME280;49472;49.880;8.650;2023-02-13T08:09:58;102200.78;;;11.68;58.21
63347;BME280;49472;49.880;8.650;2023-02-13T08:12:42;102199.84;;;11.50;58.29
63347;BME280;49472;49.880;8.650;2023-02-13T08:15:10;102204.56;;;11.59;58.27
63347;BME280;49472;49.880;8.650;2023-02-13T08:17:36;102201.88;;;11.42;58.50
63347;BME280;49472;49.880;8.650;2023-02-13T08:20:01;102204.25;;;11.46;58.67
63347;BME280;49472;49.880;8.650;2023-02-13T08:22:27;102211.03;;;11.68;58.81
63347;BME280;49472;49.880;8.650;2023-02-13T08:24:52;102199.09;;;11.67;58.22
63347;BME280;49472;49.880;8.650;2023-02-13T08:27:18;102207.81;;;11.83;58.49
63347;BME280;49472;49.880;8.650;2023-02-13T08:29:43;102200.41;;;12.16;57.87
63347;BME280;49472;49.880;8.650;2023-02-13T08:32:09;102202.59;;;12.05;57.68
63347;BME280;49472;49.880;8.650;2023-02-13T08:34:34;102201.47;;;12.49;57.49
63347;BME280;49472;49.880;8.650;2023-02-13T08:37:00;102200.56;;;12.69;57.13
63347;BME280;49472;49.880;8.650;2023-02-13T08:39:26;102204.28;;;12.80;56.71
63347;BME280;49472;49.880;8.650;2023-02-13T08:41:51;102206.69;;;12.84;56.73
63347;BME280;49472;49.880;8.650;2023-02-13T08:44:16;102198.31;;;12.97;56.20
63347;BME280;49472;49.880;8.650;2023-02-13T08:46:42;102202.97;;;13.08;56.47
63347;BME280;49472;49.880;8.650;2023-02-13T08:49:07;102200.53;;;13.05;55.62
63347;BME280;49472;49.880;8.650;2023-02-13T08:51:32;102209.72;;;13.28;55.87
63347;BME280;49472;49.880;8.650;2023-02-13T08:53:58;102212.91;;;13.33;55.57
63347;BME280;49472;49.880;8.650;2023-02-13T08:56:23;102209.25;;;13.55;55.27
63347;BME280;49472;49.880;8.650;2023-02-13T08:58:48;102205.34;;;13.63;54.99
63347;BME280;49472;49.880;8.650;2023-02-13T09:01:14;102206.88;;;13.67;54.55
63347;BME280;49472;49.880;8.650;2023-02-13T09:03:39;102206.31;;;13.78;54.51
63347;BME280;49472;49.880;8.650;2023-02-13T09:06:05;102210.28;;;13.68;53.93
63347;BME280;49472;49.880;8.650;2023-02-13T09:08:30;102209.13;;;14.07;54.05
63347;BME280;49472;49.880;8.650;2023-02-13T09:11:01;102204.06;;;14.21;53.33
63347;BME280;49472;49.880;8.650;2023-02-13T09:13:28;102202.41;;;14.20;54.32
63347;BME280;49472;49.880;8.650;2023-02-13T09:15:53;102201.72;;;14.17;53.73
63347;BME280;49472;49.880;8.650;2023-02-13T09:18:21;102203.50;;;14.48;53.73
63347;BME280;49472;49.880;8.650;2023-02-13T09:20:46;102198.19;;;14.51;53.49
63347;BME280;49472;49.880;8.650;2023-02-13T09:23:11;102195.84;;;14.46;53.35
63347;BME280;49472;49.880;8.650;2023-02-13T09:25:37;102202.50;;;14.66;52.29
63347;BME280;49472;49.880;8.650;2023-02-13T09:28:02;102195.00;;;14.77;53.20
63347;BME280;49472;49.880;8.650;2023-02-13T09:30:27;102196.59;;;14.80;52.87
63347;BME280;49472;49.880;8.650;2023-02-13T09:32:53;102191.94;;;15.17;51.36
63347;BME280;49472;49.880;8.650;2023-02-13T09:35:19;102197.59;;;15.08;51.94
63347;BME280;49472;49.880;8.650;2023-02-13T09:37:45;102186.88;;;15.30;51.63
63347;BME280;49472;49.880;8.650;2023-02-13T09:42:44;102189.28;;;15.33;50.81
63347;BME280;49472;49.880;8.650;2023-02-13T09:45:11;102194.63;;;15.44;51.29
63347;BME280;49472;49.880;8.650;2023-02-13T09:47:42;102194.53;;;15.46;51.50
63347;BME280;49472;49.880;8.650;2023-02-13T09:50:23;102199.06;;;15.56;51.59
63347;BME280;49472;49.880;8.650;2023-02-13T09:52:51;102200.28;;;15.65;51.05
63347;BME280;49472;49.880;8.650;2023-02-13T09:55:23;102201.00;;;15.53;50.59
63347;BME280;49472;49.880;8.650;2023-02-13T09:58:02;102201.75;;;15.55;51.01
63347;BME280;49472;49.880;8.650;2023-02-13T10:00:39;102199.22;;;15.25;50.00
63347;BME280;49472;49.880;8.650;2023-02-13T10:03:17;102209.38;;;15.42;50.53
63347;BME280;49472;49.880;8.650;2023-02-13T10:06:01;102203.25;;;15.14;50.16
63347;BME280;49472;49.880;8.650;2023-02-13T10:19:13;102197.97;;;16.45;49.16
63347;BME280;49472;49.880;8.650;2023-02-13T10:21:50;102196.69;;;16.38;47.83
63347;BME280;49472;49.880;8.650;2023-02-13T10:24:28;102198.28;;;16.67;48.23
63347;BME280;49472;49.880;8.650;2023-02-13T10:26:56;102188.78;;;16.95;48.05
63347;BME280;49472;49.880;8.650;2023-02-13T10:32:13;102188.34;;;17.01;46.86
63347;BME280;49472;49.880;8.650;2023-02-13T10:34:44;102188.50;;;17.25;46.83
63347;BME280;49472;49.880;8.650;2023-02-13T10:37:18;102185.41;;;17.20;46.69
63347;BME280;49472;49.880;8.650;2023-02-13T10:39:47;102187.47;;;17.15;47.16
63347;BME280;49472;49.880;8.650;2023-02-13T10:58:53;102178.41;;;16.82;47.31
63347;BME280;49472;49.880;8.650;2023-02-13T11:06:33;102168.38;;;16.78;47.69
63347;BME280;49472;49.880;8.650;2023-02-13T11:08:58;102168.53;;;16.75;47.26
63347;BME280;49472;49.880;8.650;2023-02-13T11:11:38;102169.13;;;16.65;46.72
63347;BME280;49472;49.880;8.650;2023-02-13T11:19:30;102162.28;;;16.52;47.23
63347;BME280;49472;49.880;8.650;2023-02-13T11:24:31;102155.88;;;16.30;48.22
63347;BME280;49472;49.880;8.650;2023-02-13T11:27:02;102153.03;;;16.20;46.51
63347;BME280;49472;49.880;8.650;2023-02-13T11:29:34;102155.41;;;15.96;47.65
63347;BME280;49472;49.880;8.650;2023-02-13T11:32:17;102147.53;;;16.12;46.96
63347;BME280;49472;49.880;8.650;2023-02-13T11:34:44;102136.63;;;16.48;47.83
63347;BME280;49472;49.880;8.650;2023-02-13T11:37:23;102148.41;;;16.25;46.81
63347;BME280;49472;49.880;8.650;2023-02-13T11:39:51;102136.69;;;16.34;47.39
63347;BME280;49472;49.880;8.650;2023-02-13T11:42:24;102135.75;;;16.35;46.33
63347;BME280;49472;49.880;8.650;2023-02-13T11:44:54;102140.22;;;16.73;46.23
63347;BME280;49472;49.880;8.650;2023-02-13T11:47:41;102138.00;;;16.94;46.86
63347;BME280;49472;49.880;8.650;2023-02-13T11:50:31;102138.72;;;16.96;45.15
63347;BME280;49472;49.880;8.650;2023-02-13T11:53:04;102130.97;;;17.47;46.31
63347;BME280;49472;49.880;8.650;2023-02-13T11:55:36;102128.31;;;17.86;43.92
63347;BME280;49472;49.880;8.650;2023-02-13T11:58:22;102130.13;;;18.57;43.28
63347;BME280;49472;49.880;8.650;2023-02-13T12:00:47;102118.63;;;18.73;43.42
63347;BME280;49472;49.880;8.650;2023-02-13T12:03:31;102121.19;;;19.19;42.50
63347;BME280;49472;49.880;8.650;2023-02-13T12:06:10;102121.97;;;20.31;42.55
63347;BME280;49472;49.880;8.650;2023-02-13T12:08:41;102110.66;;;21.56;38.95
63347;BME280;49472;49.880;8.650;2023-02-13T12:13:45;102104.59;;;22.45;36.62
63347;BME280;49472;49.880;8.650;2023-02-13T12:16:27;102108.78;;;22.85;37.82
63347;BME280;49472;49.880;8.650;2023-02-13T12:18:55;102108.13;;;22.53;35.54
63347;BME280;49472;49.880;8.650;2023-02-13T12:21:40;102108.41;;;23.45;37.40
63347;BME280;49472;49.880;8.650;2023-02-13T12:24:18;102097.44;;;24.22;35.19
63347;BME280;49472;49.880;8.650;2023-02-13T12:35:20;102091.66;;;25.82;33.36
63347;BME280;49472;49.880;8.650;2023-02-13T12:40:59;102082.69;;;27.06;31.60
63347;BME280;49472;49.880;8.650;2023-02-13T12:43:51;102087.31;;;27.66;32.66
63347;BME280;49472;49.880;8.650;2023-02-13T12:46:30;102074.88;;;28.06;29.48
63347;BME280;49472;49.880;8.650;2023-02-13T12:57:19;102065.66;;;28.99;30.12
63347;BME280;49472;49.880;8.650;2023-02-13T13:00:16;102055.97;;;29.58;29.26
63347;BME280;49472;49.880;8.650;2023-02-13T13:05:58;102057.53;;;30.23;28.50
63347;BME280;49472;49.880;8.650;2023-02-13T13:14:53;102049.97;;;29.85;26.03
63347;BME280;49472;49.880;8.650;2023-02-13T13:17:49;102052.28;;;29.74;28.73
63347;BME280;49472;49.880;8.650;2023-02-13T13:20:51;102046.13;;;30.44;26.05
63347;BME280;49472;49.880;8.650;2023-02-13T13:28:57;102039.59;;;31.90;25.46
63347;BME280;49472;49.880;8.650;2023-02-13T13:31:25;102031.97;;;32.53;24.76
63347;BME280;49472;49.880;8.650;2023-02-13T13:33:51;102032.69;;;30.11;27.02
63347;BME280;49472;49.880;8.650;2023-02-13T13:46:59;102022.91;;;32.09;25.67
63347;BME280;49472;49.880;8.650;2023-02-13T13:52:27;102011.94;;;32.64;24.15
63347;BME280;49472;49.880;8.650;2023-02-13T13:54:53;102016.81;;;31.95;23.97
63347;BME280;49472;49.880;8.650;2023-02-13T14:00:22;102010.91;;;31.87;24.68
63347;BME280;49472;49.880;8.650;2023-02-13T14:02:51;102010.16;;;33.03;24.03
63347;BME280;49472;49.880;8.650;2023-02-13T14:05:57;102007.72;;;33.58;23.01
63347;BME280;49472;49.880;8.650;2023-02-13T14:11:35;102006.53;;;33.54;24.02
63347;BME280;49472;49.880;8.650;2023-02-13T14:14:01;102003.34;;;33.14;24.58
63347;BME280;49472;49.880;8.650;2023-02-13T14:16:46;101998.50;;;34.04;24.59
63347;BME280;49472;49.880;8.650;2023-02-13T14:27:26;101989.63;;;34.47;23.96
63347;BME280;49472;49.880;8.650;2023-02-13T14:29:53;101993.13;;;33.17;23.64
63347;BME280;49472;49.880;8.650;2023-02-13T14:32:31;101987.50;;;34.01;23.45
63347;BME280;49472;49.880;8.650;2023-02-13T14:35:03;101988.44;;;33.69;23.30
63347;BME280;49472;49.880;8.650;2023-02-13T14:37:33;101990.38;;;33.99;22.47
63347;BME280;49472;49.880;8.650;2023-02-13T14:42:55;101996.06;;;34.40;21.21
63347;BME280;49472;49.880;8.650;2023-02-13T14:45:25;101984.25;;;34.54;23.33
63347;BME280;49472;49.880;8.650;2023-02-13T14:47:54;101984.88;;;34.98;21.33
63347;BME280;49472;49.880;8.650;2023-02-13T14:50:25;101984.88;;;34.98;24.64
63347;BME280;49472;49.880;8.650;2023-02-13T14:52:53;101985.22;;;34.04;21.99
63347;BME280;49472;49.880;8.650;2023-02-13T14:55:39;101986.69;;;34.07;22.14
63347;BME280;49472;49.880;8.650;2023-02-13T14:58:19;101979.88;;;33.42;21.95
63347;BME280;49472;49.880;8.650;2023-02-13T15:00:56;101985.63;;;32.11;23.35
63347;BME280;49472;49.880;8.650;2023-02-13T15:03:29;101984.59;;;29.81;25.03
63347;BME280;49472;49.880;8.650;2023-02-13T15:06:00;101981.09;;;28.73;27.06
63347;BME280;49472;49.880;8.650;2023-02-13T15:08:31;101983.31;;;27.49;28.70
63347;BME280;49472;49.880;8.650;2023-02-13T15:10:58;101988.16;;;26.19;28.64
63347;BME280;49472;49.880;8.650;2023-02-13T15:13:35;101980.81;;;26.06;29.69
63347;BME280;49472;49.880;8.650;2023-02-13T15:18:48;101985.97;;;24.65;31.05
63347;BME280;49472;49.880;8.650;2023-02-13T15:21:20;101984.13;;;24.40;30.99
63347;BME280;49472;49.880;8.650;2023-02-13T15:23:51;101985.84;;;23.97;30.88
63347;BME280;49472;49.880;8.650;2023-02-13T15:26:21;101988.81;;;23.48;31.42
63347;BME280;49472;49.880;8.650;2023-02-13T15:28:59;101986.66;;;23.26;31.45
63347;BME280;49472;49.880;8.650;2023-02-13T15:31:29;101988.81;;;22.75;31.87
63347;BME280;49472;49.880;8.650;2023-02-13T15:33:55;101991.31;;;22.67;32.27
63347;BME280;49472;49.880;8.650;2023-02-13T15:36:25;101989.19;;;22.52;32.51
63347;BME280;49472;49.880;8.650;2023-02-13T15:39:04;101982.94;;;22.16;32.31
63347;BME280;49472;49.880;8.650;2023-02-13T15:41:43;101990.38;;;21.92;32.98
63347;BME280;49472;49.880;8.650;2023-02-13T15:44:47;101987.34;;;21.77;32.77
63347;BME280;49472;49.880;8.650;2023-02-13T15:47:29;101987.78;;;21.53;33.60
63347;BME280;49472;49.880;8.650;2023-02-13T15:49:55;101988.22;;;21.17;33.86